Time;durP1;ratioP1;P1;durP2;ratioP2;P2;SDS_P1;SDS_P2;PMS_P1;PMS_P2;Temp;Humidity;BMP_temperature;BMP_pressure;BME280_temperature;BME280_humidity;BME280_pressure;Samples;Min_cycle;Max_cycle;Signal;HPM_P1;HPM_P2
2023/12/28 00:00:03;;;;;;;5.57;3.83;;;;;;;-14.10;81.56;101118.03;5054256;28;20076;-65
2023/12/28 00:02:33;;;;;;;44.70;16.67;;;;;;;-14.26;80.22;101120.69;5062532;28;20492;-65
2023/12/28 00:05:04;;;;;;;24.90;10.07;;;;;;;-14.29;80.27;101129.56;5065555;28;20052;-65
2023/12/28 00:07:34;;;;;;;38.85;10.85;;;;;;;-14.14;81.07;101126.00;5057758;28;20075;-65
2023/12/28 00:10:07;;;;;;;12.35;6.22;;;;;;;-13.99;80.92;101121.53;5064851;28;20052;-65
2023/12/28 00:12:38;;;;;;;39.75;14.98;;;;;;;-13.94;80.88;101122.88;5054808;28;20104;-65
2023/12/28 00:15:09;;;;;;;25.15;9.95;;;;;;;-13.93;81.15;101122.97;5065005;28;20044;-65
2023/12/28 00:17:40;;;;;;;17.02;7.88;;;;;;;-13.76;81.54;101121.19;5054227;28;20076;-65
2023/12/28 00:20:11;;;;;;;33.55;12.45;;;;;;;-13.66;81.75;101123.81;5064866;28;20055;-65
2023/12/28 00:22:40;;;;;;;21.63;8.73;;;;;;;-13.50;81.77;101116.97;5054969;28;20117;-65
2023/12/28 00:25:12;;;;;;;7.03;5.45;;;;;;;-13.28;81.69;101129.88;5064894;28;20141;-65
2023/12/28 00:27:45;;;;;;;31.15;11.82;;;;;;;-13.25;81.34;101129.25;5054465;28;20071;-65
2023/12/28 00:30:17;;;;;;;77.45;27.35;;;;;;;-13.12;81.23;101126.22;5064615;28;20421;-65
2023/12/28 00:32:47;;;;;;;24.35;9.43;;;;;;;-12.83;80.92;101123.81;5054307;28;20519;-65
2023/12/28 00:35:18;;;;;;;14.98;6.70;;;;;;;-12.76;80.17;101133.69;5064756;28;20048;-65
2023/12/28 00:37:48;;;;;;;9.60;5.03;;;;;;;-12.65;79.99;101133.03;5054886;28;20056;-65
2023/12/28 00:40:21;;;;;;;5.32;3.90;;;;;;;-12.61;79.74;101135.06;5064549;28;20064;-65
2023/12/28 00:42:52;;;;;;;7.32;4.00;;;;;;;-12.52;79.84;101134.13;5053871;28;20055;-65
2023/12/28 00:45:22;;;;;;;5.20;3.50;;;;;;;-12.47;79.71;101133.78;5064197;28;20050;-65
2023/12/28 00:47:55;;;;;;;6.53;4.40;;;;;;;-12.42;79.62;101134.19;5045556;28;20341;-66
2023/12/28 00:50:27;;;;;;;9.07;5.22;;;;;;;-12.16;80.13;101122.22;5045189;28;20052;-65
2023/12/28 00:52:57;;;;;;;5.22;3.83;;;;;;;-11.70;80.30;101129.44;5035440;28;20174;-65
2023/12/28 00:55:29;;;;;;;5.68;3.90;;;;;;;-11.56;80.24;101121.44;5044986;28;20056;-65
2023/12/28 00:58:00;;;;;;;6.40;3.90;;;;;;;-11.35;79.69;101124.91;5030255;28;20477;-65
2023/12/28 01:00:30;;;;;;;5.57;3.70;;;;;;;-11.15;79.25;101124.94;5045045;28;20540;-65
2023/12/28 01:03:04;;;;;;;5.53;3.88;;;;;;;-11.21;78.23;101123.53;5026526;28;20140;-66
2023/12/28 01:05:35;;;;;;;5.78;4.00;;;;;;;-11.12;78.66;101119.28;5034211;28;20051;-66
2023/12/28 01:08:05;;;;;;;10.95;4.65;;;;;;;-11.20;78.18;101100.09;5059672;28;20052;-65
2023/12/28 01:10:38;;;;;;;10.68;4.80;;;;;;;-10.85;79.01;101108.06;5053960;28;20107;-65
2023/12/28 01:13:07;;;;;;;4.85;3.50;;;;;;;-10.71;78.26;101106.63;5062498;28;20061;-65
2023/12/28 01:15:37;;;;;;;6.30;4.90;;;;;;;-10.61;77.25;101111.69;5053674;28;20056;-65
2023/12/28 01:18:08;;;;;;;7.28;5.65;;;;;;;-10.68;75.94;101104.38;5064025;28;20554;-65
2023/12/28 01:20:38;;;;;;;10.93;7.00;;;;;;;-10.76;75.64;101100.34;5054062;28;20355;-66
2023/12/28 01:23:09;;;;;;;7.47;5.70;;;;;;;-10.64;75.90;101098.81;5063794;28;20044;-66
2023/12/28 01:25:41;;;;;;;9.93;5.50;;;;;;;-10.37;76.14;101096.75;5053609;28;20075;-65
2023/12/28 01:28:12;;;;;;;8.07;4.70;;;;;;;-9.65;77.28;101098.22;5063830;28;20369;-65
2023/12/28 01:30:43;;;;;;;8.30;4.82;;;;;;;-9.31;76.57;101098.25;5053230;28;20059;-65
2023/12/28 01:33:14;;;;;;;8.63;5.72;;;;;;;-9.00;75.72;101090.47;5063662;28;20116;-66
2023/12/28 01:35:44;;;;;;;9.80;5.78;;;;;;;-8.68;74.82;101093.75;5053195;28;20075;-65
2023/12/28 01:38:15;;;;;;;9.05;4.22;;;;;;;-8.61;74.03;101087.47;5049928;28;20231;-65
2023/12/28 01:40:48;;;;;;;6.72;3.53;;;;;;;-8.65;73.23;101079.53;5034467;28;20121;-64
2023/12/28 01:43:19;;;;;;;8.00;3.30;;;;;;;-8.45;73.12;101069.19;5043754;28;20049;-64
2023/12/28 01:45:49;;;;;;;6.90;3.33;;;;;;;-8.34;72.27;101068.25;5033698;28;20125;-67
2023/12/28 01:48:20;;;;;;;5.50;3.05;;;;;;;-8.02;72.23;101067.16;5043659;28;20121;-64
2023/12/28 01:50:51;;;;;;;5.13;3.10;;;;;;;-7.88;70.89;101058.88;5033580;28;20499;-66
2023/12/28 01:53:21;;;;;;;5.97;3.38;;;;;;;-7.84;69.72;101053.25;5035514;28;20108;-65
2023/12/28 01:55:54;;;;;;;7.28;3.10;;;;;;;-7.69;69.06;101052.53;5022418;28;20052;-64
2023/12/28 01:58:25;;;;;;;4.90;3.35;;;;;;;-7.42;68.46;101046.78;5033127;28;20083;-65
2023/12/28 02:00:57;;;;;;;6.18;2.53;;;;;;;-7.34;66.73;101038.81;5016817;28;20556;-66
2023/12/28 02:03:28;;;;;;;6.03;3.47;;;;;;;-7.55;65.56;101041.66;5025638;28;20076;-65
2023/12/28 02:06:01;;;;;;;5.65;3.08;;;;;;;-7.58;65.32;101031.31;5036789;28;20044;-65
2023/12/28 02:08:31;;;;;;;6.07;3.83;;;;;;;-7.55;65.00;101031.50;5058811;28;20048;-65
2023/12/28 02:11:03;;;;;;;6.05;3.45;;;;;;;-7.38;64.68;101020.84;5047649;28;20065;-64
2023/12/28 02:13:34;;;;;;;5.50;2.90;;;;;;;-7.32;63.55;101024.56;5049782;28;20148;-66
2023/12/28 02:16:11;;;;;;;4.57;2.75;;;;;;;-7.12;63.45;101024.25;5055194;28;20053;-65
2023/12/28 02:18:45;;;;;;;5.47;3.28;;;;;;;-6.99;61.99;101021.75;5029347;28;20113;-67
2023/12/28 02:21:17;;;;;;;4.82;2.97;;;;;;;-6.86;61.00;101012.38;5037337;28;20052;-68
2023/12/28 02:23:52;;;;;;;6.00;3.58;;;;;;;-6.56;61.44;101003.34;5037655;28;20055;-68
2023/12/28 02:26:23;;;;;;;4.53;3.08;;;;;;;-6.42;59.43;101001.66;5046860;28;20346;-69
2023/12/28 02:28:54;;;;;;;5.50;3.10;;;;;;;-6.15;60.10;101007.59;5032929;28;20675;-66
2023/12/28 02:31:33;;;;;;;9.02;3.75;;;;;;;-5.87;59.87;101005.06;5042593;28;20224;-67
2023/12/28 02:34:10;;;;;;;7.28;3.78;;;;;;;-5.61;60.49;100993.03;5032047;28;20135;-67
2023/12/28 02:36:45;;;;;;;9.77;4.28;;;;;;;-5.50;59.86;100997.09;5032381;28;20070;-66
2023/12/28 02:39:18;;;;;;;7.75;3.70;;;;;;;-5.46;60.06;100993.97;5042738;28;20063;-68
2023/12/28 02:41:50;;;;;;;5.85;3.33;;;;;;;-5.24;59.84;100991.88;5033233;28;20056;-68
2023/12/28 02:44:20;;;;;;;7.57;3.90;;;;;;;-4.97;60.42;100989.16;5042860;28;20110;-68
2023/12/28 02:46:51;;;;;;;11.15;5.32;;;;;;;-5.67;60.00;100856.94;5033309;28;20141;-66
2023/12/28 02:49:21;;;;;;;9.43;3.75;;;;;;;-5.00;58.55;100981.34;5042692;28;20060;-69
2023/12/28 02:51:52;;;;;;;18.27;6.15;;;;;;;-5.13;57.71;100968.69;5032582;28;20129;-68
2023/12/28 02:54:22;;;;;;;7.85;3.97;;;;;;;-5.17;59.19;100979.50;5042335;28;20091;-67
2023/12/28 02:56:54;;;;;;;9.32;3.28;;;;;;;-5.33;59.09;100976.06;5032821;28;20068;-68
2023/12/28 02:59:25;;;;;;;6.15;3.03;;;;;;;-5.45;58.31;100990.63;5042525;28;20084;-66
2023/12/28 03:01:55;;;;;;;5.68;3.55;;;;;;;-5.67;57.95;100981.69;5033416;28;20135;-64
2023/12/28 03:04:26;;;;;;;9.48;5.47;;;;;;;-5.83;58.39;100979.00;5042826;28;20097;-68
2023/12/28 03:06:56;;;;;;;10.18;5.00;;;;;;;-6.03;58.82;100974.41;5031779;28;20049;-65
2023/12/28 03:09:27;;;;;;;5.80;3.13;;;;;;;-6.04;58.88;100965.00;5042802;28;20145;-69
2023/12/28 03:11:59;;;;;;;6.15;3.63;;;;;;;-6.02;58.41;100963.44;5032862;28;20055;-66
2023/12/28 03:14:29;;;;;;;6.85;3.33;;;;;;;-6.09;58.09;100969.81;5042457;28;20078;-65
2023/12/28 03:16:59;;;;;;;6.53;2.40;;;;;;;-5.99;58.40;100974.69;5035924;28;20056;-67
2023/12/28 03:19:30;;;;;;;7.32;3.20;;;;;;;-6.04;58.14;100965.00;5062040;28;20109;-66
2023/12/28 03:22:01;;;;;;;6.28;4.03;;;;;;;-6.16;58.39;100968.56;5051403;28;20906;-68
2023/12/28 03:24:31;;;;;;;10.00;4.38;;;;;;;-6.28;58.39;100955.09;5062062;28;20549;-64
2023/12/28 03:27:03;;;;;;;10.00;3.80;;;;;;;-6.42;57.81;100960.97;5050812;28;20113;-64
2023/12/28 03:29:34;;;;;;;6.47;3.47;;;;;;;-6.58;57.80;100960.00;5048957;28;20665;-64
2023/12/28 03:32:04;;;;;;;8.00;3.00;;;;;;;-6.67;57.96;100959.41;5062129;28;20066;-66
2023/12/28 03:34:35;;;;;;;5.90;3.15;;;;;;;-6.71;58.29;100962.56;5051798;28;20062;-66
2023/12/28 03:37:05;;;;;;;4.72;3.05;;;;;;;-6.80;58.28;100956.88;5059912;28;20051;-68
2023/12/28 03:39:36;;;;;;;6.85;3.60;;;;;;;-6.90;58.44;100959.63;5046027;28;20802;-68
2023/12/28 03:42:08;;;;;;;4.78;2.78;;;;;;;-7.10;58.78;100964.28;5058076;28;20071;-65
2023/12/28 03:44:38;;;;;;;4.20;2.78;;;;;;;-7.08;59.93;100965.25;5047821;28;20052;-66
2023/12/28 03:47:09;;;;;;;4.70;2.70;;;;;;;-7.08;61.31;100965.25;5060747;28;20460;-66
2023/12/28 03:49:40;;;;;;;4.50;2.70;;;;;;;-7.24;62.64;100952.31;5051565;28;20083;-67
2023/12/28 03:52:11;;;;;;;4.30;2.88;;;;;;;-7.23;63.62;100960.06;5061262;28;20052;-67
2023/12/28 03:54:42;;;;;;;4.28;2.63;;;;;;;-7.18;63.83;100947.66;5051534;28;20105;-67
2023/12/28 03:57:14;;;;;;;6.45;3.10;;;;;;;-7.32;63.94;100948.41;5061688;28;20039;-66
2023/12/28 03:59:44;;;;;;;7.53;3.10;;;;;;;-7.61;64.98;100960.06;5050931;28;20134;-67
2023/12/28 04:02:15;;;;;;;7.40;3.10;;;;;;;-7.73;66.17;100969.38;5060599;28;20127;-66
2023/12/28 04:04:45;;;;;;;6.57;3.25;;;;;;;-7.66;67.06;100961.38;5051061;28;21425;-66
2023/12/28 04:07:16;;;;;;;4.03;2.70;;;;;;;-7.79;67.19;100953.72;5057863;28;20096;-66
2023/12/28 04:09:46;;;;;;;5.55;3.17;;;;;;;-7.90;68.60;100956.41;5050520;28;20060;-66
2023/12/28 04:12:18;;;;;;;5.95;2.92;;;;;;;-8.03;69.11;100974.97;5060874;28;20541;-66
2023/12/28 04:14:49;;;;;;;6.80;3.13;;;;;;;-8.12;69.68;100960.78;5050767;28;20727;-67
2023/12/28 04:17:19;;;;;;;4.30;2.97;;;;;;;-8.26;70.54;100960.72;5060953;28;20525;-66
2023/12/28 04:19:50;;;;;;;5.97;2.92;;;;;;;-8.29;71.38;100960.47;5051112;28;20388;-67
2023/12/28 04:22:20;;;;;;;3.80;2.97;;;;;;;-8.31;71.71;100959.50;5060825;28;20048;-66
2023/12/28 04:24:51;;;;;;;9.95;3.03;;;;;;;-8.25;71.89;100952.31;5046838;28;20104;-66
2023/12/28 04:27:23;;;;;;;7.65;3.50;;;;;;;-8.26;71.03;100960.72;5060705;28;20163;-66
2023/12/28 04:29:53;;;;;;;4.70;3.00;;;;;;;-8.27;71.23;100960.59;5050277;28;20060;-67
2023/12/28 04:32:24;;;;;;;5.03;3.20;;;;;;;-8.25;71.41;100957.38;5060538;28;20080;-66
2023/12/28 04:34:54;;;;;;;7.70;3.72;;;;;;;-8.16;71.60;100966.41;5049641;28;20060;-66
2023/12/28 04:37:26;;;;;;;4.13;2.70;;;;;;;-8.16;71.64;100956.25;5059728;28;20055;-66
2023/12/28 04:39:57;;;;;;;4.88;3.10;;;;;;;-8.17;71.53;100954.50;5050185;28;20050;-66
2023/12/28 04:42:29;;;;;;;4.00;2.75;;;;;;;-8.18;71.41;100957.81;5057331;28;20427;-66
2023/12/28 04:44:59;;;;;;;4.80;3.13;;;;;;;-8.22;70.79;100954.19;5050094;28;20051;-66
2023/12/28 04:47:30;;;;;;;5.05;2.97;;;;;;;-8.20;71.05;100944.16;5059208;28;20097;-67
2023/12/28 04:50:00;;;;;;;4.47;3.10;;;;;;;-8.46;70.25;100938.19;5050482;28;20055;-67
2023/12/28 04:52:31;;;;;;;5.22;3.30;;;;;;;-8.43;70.89;100951.06;5060465;28;20052;-65
2023/12/28 04:55:01;;;;;;;4.05;2.80;;;;;;;-8.37;70.71;100946.38;5049886;28;20059;-65
2023/12/28 04:57:33;;;;;;;4.95;2.70;;;;;;;-8.35;69.88;100949.03;5060320;28;20052;-66
2023/12/28 05:00:04;;;;;;;5.57;3.22;;;;;;;-8.30;69.90;100962.91;5048866;28;20047;-66
2023/12/28 05:02:35;;;;;;;6.22;3.45;;;;;;;-8.21;69.61;100952.53;5045944;28;20048;-67
2023/12/28 05:05:05;;;;;;;8.70;4.55;;;;;;;-8.05;69.45;100950.28;5060611;28;20079;-66
2023/12/28 05:07:36;;;;;;;7.78;4.63;;;;;;;-8.05;68.73;100940.13;5049903;28;20055;-67
2023/12/28 05:10:07;;;;;;;9.82;5.18;;;;;;;-8.11;68.71;100944.78;5056000;28;20076;-66
2023/12/28 05:12:39;;;;;;;9.13;3.78;;;;;;;-8.41;69.04;100893.78;5049289;28;20059;-67
2023/12/28 05:15:13;;;;;;;8.38;4.38;;;;;;;-8.17;68.82;100949.44;5059976;28;20035;-67
2023/12/28 05:17:43;;;;;;;8.35;4.47;;;;;;;-8.25;69.22;100944.72;5045708;28;20051;-67
2023/12/28 05:20:14;;;;;;;8.65;4.47;;;;;;;-8.42;69.42;100947.75;5059253;28;20044;-66
2023/12/28 05:22:44;;;;;;;7.43;3.63;;;;;;;-8.48;69.84;100942.25;5049548;28;20388;-67
2023/12/28 05:25:15;;;;;;;7.75;3.38;;;;;;;-8.60;70.19;100941.41;5059648;28;20064;-66
2023/12/28 05:27:47;;;;;;;9.38;2.92;;;;;;;-8.55;70.28;100945.13;5049221;28;20112;-67
2023/12/28 05:30:17;;;;;;;8.50;4.22;;;;;;;-8.55;70.21;100940.94;5059638;28;20451;-67
2023/12/28 05:32:48;;;;;;;6.65;3.83;;;;;;;-8.61;70.41;100919.34;5048575;28;20048;-67
2023/12/28 05:35:18;;;;;;;10.77;5.20;;;;;;;-8.48;70.92;100947.34;5058834;28;20070;-66
2023/12/28 05:37:49;;;;;;;10.20;5.15;;;;;;;-8.52;71.02;100943.69;5049059;28;20139;-67
2023/12/28 05:40:19;;;;;;;9.30;3.83;;;;;;;-8.56;71.45;100944.25;5055491;28;20554;-67
2023/12/28 05:42:51;;;;;;;13.48;3.30;;;;;;;-8.54;72.02;100941.81;5045151;28;20080;-66
2023/12/28 05:45:22;;;;;;;5.35;3.10;;;;;;;-8.55;72.47;100940.06;5055705;28;20055;-67
2023/12/28 05:47:52;;;;;;;6.95;3.38;;;;;;;-8.56;72.54;100938.28;5048357;28;20051;-66
2023/12/28 05:50:23;;;;;;;7.03;3.50;;;;;;;-8.52;73.45;100945.34;5059175;28;20044;-64
2023/12/28 05:52:53;;;;;;;17.45;7.88;;;;;;;-8.41;74.65;100949.53;5049533;28;20194;-63
2023/12/28 05:55:24;;;;;;;5.75;3.45;;;;;;;-8.32;75.00;100955.19;5054951;28;20052;-63
2023/12/28 05:57:56;;;;;;;5.22;2.88;;;;;;;-8.45;73.92;100961.88;5045358;28;20079;-62
2023/12/28 06:00:26;;;;;;;4.38;2.92;;;;;;;-8.66;73.35;100966.28;5059019;28;20056;-64
2023/12/28 06:02:57;;;;;;;7.53;4.32;;;;;;;-8.68;73.41;100954.41;5048945;28;20052;-64
2023/12/28 06:05:27;;;;;;;5.22;3.13;;;;;;;-8.69;73.83;100957.69;5058502;28;20075;-63
2023/12/28 06:07:58;;;;;;;5.85;3.30;;;;;;;-8.80;73.12;100967.84;5048806;28;20105;-64
2023/12/28 06:10:29;;;;;;;6.35;3.30;;;;;;;-9.04;72.69;100962.75;5058271;28;20055;-63
2023/12/28 06:13:01;;;;;;;5.28;3.38;;;;;;;-9.47;72.73;100918.22;5038769;28;20056;-67
2023/12/28 06:15:32;;;;;;;5.03;3.00;;;;;;;-9.28;72.52;100971.97;5058673;28;20048;-66
2023/12/28 06:18:04;;;;;;;7.55;3.38;;;;;;;-9.37;72.60;100968.75;5047350;28;20062;-67
2023/12/28 06:20:36;;;;;;;5.75;3.60;;;;;;;-9.46;72.38;100975.66;5047814;28;20048;-69
2023/12/28 06:23:08;;;;;;;5.97;3.25;;;;;;;-9.56;72.01;100979.13;5058934;28;20667;-68
2023/12/28 06:25:38;;;;;;;6.78;3.13;;;;;;;-9.85;71.78;100977.81;5048403;28;20439;-67
2023/12/28 06:28:10;;;;;;;11.07;3.83;;;;;;;-10.02;71.79;100976.53;5058643;28;20048;-67
2023/12/28 06:30:41;;;;;;;9.18;5.07;;;;;;;-10.31;71.74;100975.94;5045238;28;20909;-67
2023/12/28 06:33:11;;;;;;;11.85;5.65;;;;;;;-10.74;71.68;100972.56;5055427;28;20056;-66
2023/12/28 06:35:42;;;;;;;15.30;7.25;;;;;;;-10.96;72.34;100980.06;5048293;28;20771;-66
2023/12/28 06:38:12;;;;;;;16.05;8.55;;;;;;;-11.10;72.71;100986.53;5058150;28;20055;-68
2023/12/28 06:40:43;;;;;;;11.93;6.82;;;;;;;-11.47;72.62;100996.13;5048471;28;20079;-67
2023/12/28 06:43:15;;;;;;;20.92;9.63;;;;;;;-11.77;73.30;100997.84;5055032;28;20545;-67
2023/12/28 06:45:45;;;;;;;16.38;7.50;;;;;;;-12.00;73.49;100997.59;5045084;28;20488;-67
2023/12/28 06:48:16;;;;;;;11.38;5.88;;;;;;;-12.19;74.10;100993.50;5055129;28;20060;-66
2023/12/28 06:50:47;;;;;;;12.15;5.60;;;;;;;-12.43;75.07;100999.84;5044488;28;20051;-67
2023/12/28 06:53:17;;;;;;;11.27;6.88;;;;;;;-12.78;75.96;100994.25;5058872;28;20039;-67
2023/12/28 06:55:48;;;;;;;10.60;6.47;;;;;;;-13.09;76.88;100986.50;5048809;28;20047;-67
2023/12/28 06:58:20;;;;;;;11.82;6.47;;;;;;;-13.23;77.94;101002.00;5058300;28;20044;-66
2023/12/28 07:00:50;;;;;;;9.77;6.78;;;;;;;-13.43;79.34;101019.47;5044414;28;20058;-67
2023/12/28 07:03:21;;;;;;;9.52;6.00;;;;;;;-13.54;80.25;101019.38;5058653;28;20059;-67
2023/12/28 07:05:51;;;;;;;9.07;5.57;;;;;;;-13.58;80.92;101017.31;5048041;28;20040;-66
2023/12/28 07:08:22;;;;;;;14.57;6.55;;;;;;;-13.64;81.87;101021.81;5055928;28;20048;-66
2023/12/28 07:10:52;;;;;;;8.38;5.60;;;;;;;-13.75;83.02;101022.44;5048166;28;20044;-66
2023/12/28 07:13:25;;;;;;;6.32;4.88;;;;;;;-13.79;83.57;101028.81;5058100;28;20052;-66
2023/12/28 07:15:55;;;;;;;6.57;4.78;;;;;;;-13.75;84.13;101032.47;5047541;28;20127;-66
2023/12/28 07:18:29;;;;;;;5.45;3.80;;;;;;;-13.69;84.71;101028.03;5058255;28;20056;-66
2023/12/28 07:21:00;;;;;;;4.82;3.97;;;;;;;-13.61;84.68;101038.78;5048033;28;20062;-66
2023/12/28 07:23:30;;;;;;;7.78;4.32;;;;;;;-13.53;85.17;101035.34;5061754;28;20133;-66
2023/12/28 07:26:00;;;;;;;6.00;4.60;;;;;;;-13.49;84.88;101037.41;5051134;28;20456;-66
2023/12/28 07:28:33;;;;;;;11.13;7.57;;;;;;;-13.32;85.16;101041.47;5061199;28;20052;-66
2023/12/28 07:31:04;;;;;;;13.82;9.20;;;;;;;-13.08;85.04;101038.59;5050341;28;20079;-66
2023/12/28 07:33:35;;;;;;;7.38;4.47;;;;;;;-13.13;84.06;101028.84;5051035;28;20106;-66
2023/12/28 07:36:06;;;;;;;8.63;5.75;;;;;;;-13.19;83.68;101034.22;5060873;28;20080;-66
2023/12/28 07:38:38;;;;;;;15.05;6.28;;;;;;;-13.32;82.59;101031.41;5047230;28;20041;-66
2023/12/28 07:41:08;;;;;;;12.52;5.43;;;;;;;-13.36;82.14;101029.34;5061828;28;20052;-66
2023/12/28 07:43:40;;;;;;;25.42;8.00;;;;;;;-13.57;81.63;101016.59;5050502;28;20039;-67
2023/12/28 07:46:11;;;;;;;26.77;10.40;;;;;;;-13.55;81.65;101035.22;5061124;28;20071;-66
2023/12/28 07:48:41;;;;;;;19.25;7.32;;;;;;;-13.50;81.82;101031.50;5049907;28;20405;-66
2023/12/28 07:51:15;;;;;;;151.20;50.20;;;;;;;-13.59;81.35;101030.66;5061188;28;20056;-66
2023/12/28 07:53:45;;;;;;;191.05;70.20;;;;;;;-13.60;81.67;101033.91;5050802;28;20052;-66
2023/12/28 07:56:16;;;;;;;143.40;53.50;;;;;;;-13.67;81.45;101036.63;5059902;28;20969;-66
2023/12/28 07:58:48;;;;;;;41.75;20.83;;;;;;;-13.88;81.38;101024.56;5049010;28;20121;-66
2023/12/28 08:01:19;;;;;;;26.20;16.10;;;;;;;-14.06;81.72;101014.59;5060950;28;20505;-66
2023/12/28 08:03:49;;;;;;;15.38;10.90;;;;;;;-14.21;82.14;101020.69;5049603;28;20146;-66
2023/12/28 08:06:20;;;;;;;10.65;7.57;;;;;;;-14.26;82.87;101015.25;5056407;28;20112;-66
2023/12/28 08:08:50;;;;;;;12.65;8.18;;;;;;;-14.26;83.19;101014.38;5050001;28;20048;-66
2023/12/28 08:11:21;;;;;;;10.55;8.57;;;;;;;-14.23;83.28;101012.13;5060209;28;20069;-66
2023/12/28 08:13:52;;;;;;;6.20;5.57;;;;;;;-14.26;83.31;101005.19;5050383;28;20072;-66
2023/12/28 08:16:23;;;;;;;10.98;5.68;;;;;;;-14.34;83.14;101014.53;5056921;28;20067;-66
2023/12/28 08:18:53;;;;;;;20.45;12.75;;;;;;;-14.31;83.43;101013.03;5046847;28;20901;-66
2023/12/28 08:21:24;;;;;;;10.88;6.80;;;;;;;-14.30;83.24;101007.28;5056931;28;20066;-66
2023/12/28 08:23:55;;;;;;;5.55;3.88;;;;;;;-14.31;83.31;101015.56;5046753;28;20048;-66
2023/12/28 08:26:26;;;;;;;8.13;5.25;;;;;;;-14.41;82.72;101018.81;5060707;28;20090;-66
2023/12/28 08:28:58;;;;;;;27.92;11.35;;;;;;;-14.83;82.02;101002.38;5049391;28;20039;-66
2023/12/28 08:31:29;;;;;;;25.05;10.68;;;;;;;-14.82;81.95;101034.25;5060942;28;20137;-66
2023/12/28 08:34:00;;;;;;;21.15;7.25;;;;;;;-14.80;82.35;101042.81;5045441;28;20151;-66
2023/12/28 08:36:31;;;;;;;15.88;7.05;;;;;;;-14.87;82.00;101037.06;5059140;28;20052;-66
2023/12/28 08:39:01;;;;;;;14.60;8.65;;;;;;;-15.00;82.15;101042.50;5039118;28;20071;-66
2023/12/28 08:41:31;;;;;;;15.82;6.95;;;;;;;-15.04;82.28;101045.47;5056771;28;20110;-66
2023/12/28 08:44:04;;;;;;;19.73;8.23;;;;;;;-15.13;81.95;101039.53;5042368;28;20068;-66
2023/12/28 08:46:34;;;;;;;15.32;6.95;;;;;;;-15.26;81.44;101042.47;5053239;28;20799;-66
2023/12/28 08:49:05;;;;;;;16.08;8.05;;;;;;;-15.40;81.52;101033.59;5059119;28;20078;-68
2023/12/28 08:51:35;;;;;;;8.32;4.90;;;;;;;-15.54;81.20;101043.91;5049345;28;20082;-66
2023/12/28 08:54:08;;;;;;;6.53;4.22;;;;;;;-15.72;81.91;101043.00;5056279;28;20052;-66
2023/12/28 08:56:39;;;;;;;5.10;4.60;;;;;;;-15.83;82.88;101049.41;5045630;28;20076;-66
2023/12/28 08:59:11;;;;;;;5.30;4.10;;;;;;;-15.86;83.67;101039.09;5059551;28;20059;-66
2023/12/28 09:01:41;;;;;;;4.70;3.60;;;;;;;-15.87;84.24;101037.34;5049974;28;20067;-66
2023/12/28 09:04:13;;;;;;;5.47;4.18;;;;;;;-15.74;84.28;101040.31;5058530;28;20052;-66
2023/12/28 09:06:44;;;;;;;6.45;4.95;;;;;;;-15.63;84.61;101063.03;5045395;28;20137;-66
2023/12/28 09:09:15;;;;;;;7.70;4.47;;;;;;;-15.60;84.66;101043.28;5059897;28;20208;-66
2023/12/28 09:11:45;;;;;;;11.30;5.80;;;;;;;-15.33;85.36;101047.63;5048777;28;20043;-66
2023/12/28 09:14:17;;;;;;;12.70;6.05;;;;;;;-15.13;85.25;101044.56;5058043;28;20055;-66
2023/12/28 09:16:48;;;;;;;6.38;4.43;;;;;;;-15.13;84.62;101047.06;5047111;28;20044;-66
2023/12/28 09:19:18;;;;;;;7.93;4.22;;;;;;;-15.24;84.01;101036.88;5059212;28;20137;-66
2023/12/28 09:21:49;;;;;;;11.70;5.13;;;;;;;-15.42;83.48;101035.09;5048707;28;20063;-66
2023/12/28 09:24:20;;;;;;;11.32;5.03;;;;;;;-15.47;83.68;101057.19;5058733;28;20125;-66
2023/12/28 09:26:50;;;;;;;10.75;5.03;;;;;;;-15.47;83.83;101042.16;5047587;28;20128;-66
2023/12/28 09:29:22;;;;;;;8.15;4.63;;;;;;;-15.54;83.35;101043.91;5056725;28;20131;-66
2023/12/28 09:31:53;;;;;;;7.00;4.75;;;;;;;-16.06;83.28;100968.63;5048479;28;20130;-66
2023/12/28 09:34:24;;;;;;;7.22;4.60;;;;;;;-16.06;83.58;100961.13;5054583;28;20048;-66
2023/12/28 09:36:54;;;;;;;5.63;3.78;;;;;;;-15.49;83.71;101043.59;5045344;28;20068;-66
2023/12/28 09:39:25;;;;;;;8.60;4.63;;;;;;;-15.44;83.96;101046.56;5058180;28;20058;-66
2023/12/28 09:42:06;;;;;;;5.57;4.25;;;;;;;-16.52;83.95;100850.72;5048121;28;20123;-66
2023/12/28 09:44:43;;;;;;;7.50;5.10;;;;;;;-15.35;84.12;101047.47;5047927;28;20121;-66
2023/12/28 09:47:14;;;;;;;6.75;4.53;;;;;;;-15.50;83.56;101045.94;5058047;28;20052;-66
2023/12/28 09:49:53;;;;;;;8.57;4.82;;;;;;;-15.47;83.71;101041.28;5046714;28;20062;-66
2023/12/28 09:52:23;;;;;;;6.68;4.85;;;;;;;-15.70;83.64;100997.34;5055177;28;20742;-66
2023/12/28 09:54:54;;;;;;;7.28;5.03;;;;;;;-15.31;83.85;101043.66;5044603;28;20849;-66
2023/12/28 09:57:25;;;;;;;17.20;9.43;;;;;;;-15.29;83.44;101048.06;5058342;28;20047;-66
2023/12/28 10:00:00;;;;;;;14.18;8.35;;;;;;;-15.26;82.89;101045.88;5048011;28;20108;-66
2023/12/28 10:02:32;;;;;;;14.27;7.50;;;;;;;-15.51;81.70;101041.69;5058467;28;20059;-66
2023/12/28 10:05:07;;;;;;;15.45;8.50;;;;;;;-15.52;81.16;101052.44;5048377;28;20055;-66
2023/12/28 10:07:44;;;;;;;15.20;7.68;;;;;;;-15.81;79.94;101037.94;5048689;28;21256;-66
2023/12/28 10:10:22;;;;;;;12.32;7.53;;;;;;;-15.68;79.86;101055.91;5058847;28;20063;-66
2023/12/28 10:12:53;;;;;;;10.45;7.15;;;;;;;-15.87;79.42;101039.84;5048757;28;20052;-66
2023/12/28 10:15:25;;;;;;;13.55;7.93;;;;;;;-15.92;78.38;101063.53;5058651;28;20144;-66
2023/12/28 10:17:56;;;;;;;9.20;5.55;;;;;;;-16.05;77.87;101073.03;5047508;28;20154;-66
2023/12/28 10:20:28;;;;;;;11.82;5.28;;;;;;;-16.24;77.44;101073.66;5055844;28;20056;-66
2023/12/28 10:23:00;;;;;;;11.40;5.00;;;;;;;-16.15;77.70;101079.59;5048493;28;20044;-66
2023/12/28 10:25:34;;;;;;;19.00;8.20;;;;;;;-16.16;77.74;101072.81;5058763;28;20049;-66
2023/12/28 10:28:07;;;;;;;23.67;9.77;;;;;;;-16.34;77.36;101075.97;5048357;28;20044;-66
2023/12/28 10:30:39;;;;;;;21.58;9.13;;;;;;;-16.47;77.20;101077.91;5047107;28;20568;-67
2023/12/28 10:33:10;;;;;;;20.45;9.07;;;;;;;-16.72;76.89;101082.91;5055042;28;20052;-66
2023/12/28 10:35:41;;;;;;;25.83;9.68;;;;;;;-16.73;77.13;101078.59;5047979;28;20062;-66
2023/12/28 10:38:15;;;;;;;13.85;6.80;;;;;;;-16.90;77.00;101073.50;5058494;28;20379;-66
2023/12/28 10:40:48;;;;;;;22.67;13.68;;;;;;;-17.20;77.14;101062.03;5048677;28;21209;-66
2023/12/28 10:43:21;;;;;;;16.58;9.45;;;;;;;-17.23;77.93;101066.72;5058201;28;20458;-67
2023/12/28 10:45:56;;;;;;;12.02;8.35;;;;;;;-17.19;78.63;101064.72;5050304;28;20075;-66
2023/12/28 10:48:32;;;;;;;10.68;7.80;;;;;;;-17.09;79.42;101070.69;5062173;28;20491;-66
2023/12/28 10:51:06;;;;;;;11.13;7.65;;;;;;;-17.09;79.47;101066.56;5040600;28;20062;-66
2023/12/28 10:53:44;;;;;;;14.48;9.88;;;;;;;-17.34;78.94;101057.19;5051535;28;20480;-66
2023/12/28 10:56:26;;;;;;;13.57;6.57;;;;;;;-17.52;78.53;101062.03;5061380;28;20055;-66
2023/12/28 10:59:07;;;;;;;7.75;5.05;;;;;;;-17.72;79.30;101051.50;5051642;28;20105;-67
2023/12/28 11:01:41;;;;;;;8.48;5.35;;;;;;;-18.18;80.28;100966.75;5051120;28;20105;-66
2023/12/28 11:04:20;;;;;;;23.27;13.93;;;;;;;-17.58;80.63;101071.34;5058394;28;20047;-66
2023/12/28 11:06:52;;;;;;;27.83;14.55;;;;;;;-17.63;80.82;101067.47;5051919;28;20059;-65
2023/12/28 11:09:26;;;;;;;23.80;13.75;;;;;;;-17.66;80.75;101067.16;5062144;28;20492;-65
2023/12/28 11:11:59;;;;;;;30.98;17.10;;;;;;;-17.46;81.18;101067.69;5052004;28;20067;-65
2023/12/28 11:14:30;;;;;;;46.92;22.73;;;;;;;-17.33;80.96;101074.84;5062421;28;20055;-65
2023/12/28 11:17:02;;;;;;;37.35;18.75;;;;;;;-17.26;80.62;101077.28;5055246;28;20043;-65
2023/12/28 11:19:33;;;;;;;29.60;13.73;;;;;;;-17.24;79.96;101070.84;5065835;28;20067;-65
2023/12/28 11:22:05;;;;;;;20.30;10.65;;;;;;;-17.24;79.48;101069.97;5055593;28;20044;-65
2023/12/28 11:25:06;;;;;;;9.88;6.72;;;;;;;-17.26;79.02;101068.91;5055317;28;20082;-65
2023/12/28 11:27:37;;;;;;;11.35;5.32;;;;;;;-17.28;78.59;101072.84;5049631;28;20044;-65
2023/12/28 11:30:08;;;;;;;16.02;6.30;;;;;;;-17.18;78.42;101065.59;5048288;28;20052;-64
2023/12/28 11:32:43;;;;;;;15.43;5.57;;;;;;;-17.41;77.55;101066.56;5034815;28;20052;-64
2023/12/28 11:35:15;;;;;;;80.13;25.20;;;;;;;-17.73;76.67;101072.22;5046139;28;20055;-64